Cenk Y — TCZV7 — position and weather

sailwx.info

Track history (hours):
 
Tides and Currents Weather Stations Pressure Air Temp Water Temp Dewpoint Dewpoint Depression Visibility Wind Speed Wind Dir Waves Ship Positions

Cenk Y

Last reported at 2018-Feb-17 12:59 UTC. Time now 2018-Feb-17 19:57 UTC.
Position N 46°20' E 030°39'.

Length 150 m; draft 4.9 m.

Type: Ship. MMSI: 271042575.

Date/timePositionNaut miles runAvg speedWind from/ knotsBaromVisibWave heightAir tempDewpointWater temp
2018-Feb-17 12:59N 46°20' E 030°39'3 5.7
2018-Feb-17 12:31N 46°19' E 030°42'3 6.1
2018-Feb-17 11:59N 46°16' E 030°45'1 0.3
2018-Feb-17 08:58N 46°16' E 030°44'0 0.0
2018-Feb-17 07:52N 46°16' E 030°44'0 0.0
2018-Feb-17 05:52N 46°16' E 030°44'0 0.0
2018-Feb-17 04:58N 46°16' E 030°44'0 0.0
2018-Feb-17 03:52N 46°16' E 030°44'0 0.0
2018-Feb-17 02:52N 46°16' E 030°44'0 0.0
2018-Feb-16 07:25N 46°16' E 030°44'0 0.0
2018-Feb-16 06:08N 46°16' E 030°44'642.0
2018-Feb-16 06:00N 46°10' E 030°46'0 0.1
2018-Feb-16 05:29N 46°10' E 030°46'  
2018-Feb-12 09:59N 46°19' E 030°40'2 0.3
2018-Feb-12 03:53N 46°21' E 030°39'0 0.0
2018-Feb-12 02:50N 46°21' E 030°39'0 0.0
2018-Feb-12 01:53N 46°21' E 030°39'0 0.0
2018-Feb-12 00:59N 46°21' E 030°39'0 0.0
2018-Feb-11 09:59N 46°21' E 030°39'0 0.0
2018-Feb-11 05:59N 46°21' E 030°39'0 0.0
2018-Feb-11 00:56N 46°21' E 030°39'0 0.0
2018-Feb-10 17:56N 46°21' E 030°39'1 1.5
2018-Feb-10 16:58N 46°19' E 030°40'9 8.7
2018-Feb-10 15:59N 46°12' E 030°46'  
2018-Feb-08 06:00N 46°21' E 030°39'0 0.0
2018-Feb-08 00:59N 46°21' E 030°39'0 0.0
2018-Feb-08 00:30N 46°21' E 030°39'0 0.0
2018-Feb-07 23:59N 46°21' E 030°39'0 0.0
2018-Feb-07 23:30N 46°21' E 030°39'0 0.0
2018-Feb-07 22:59N 46°21' E 030°39'0 0.0
2018-Feb-07 21:59N 46°21' E 030°39'0 0.0
2018-Feb-07 21:31N 46°21' E 030°39'  
Track history (hours):
 
Tides and Currents Weather Stations Pressure Air Temp Water Temp Dewpoint Dewpoint Depression Visibility Wind Speed Wind Dir Waves Ship Positions

Cenk Y

Last reported at 2018-Feb-17 12:59 UTC. Time now 2018-Feb-17 19:57 UTC.
Position N 46°20' E 030°39'.

Length 150 m; draft 4.9 m.

Type: Ship. MMSI: 271042575.

Date/timePositionNaut miles runAvg speedWind from/ knotsBaromVisibWave heightAir tempDewpointWater temp
2018-Feb-17 12:59N 46°20' E 030°39'3 5.7
2018-Feb-17 12:31N 46°19' E 030°42'3 6.1
2018-Feb-17 11:59N 46°16' E 030°45'1 0.3
2018-Feb-17 08:58N 46°16' E 030°44'0 0.0
2018-Feb-17 07:52N 46°16' E 030°44'0 0.0
2018-Feb-17 05:52N 46°16' E 030°44'0 0.0
2018-Feb-17 04:58N 46°16' E 030°44'0 0.0
2018-Feb-17 03:52N 46°16' E 030°44'0 0.0
2018-Feb-17 02:52N 46°16' E 030°44'0 0.0
2018-Feb-16 07:25N 46°16' E 030°44'0 0.0
2018-Feb-16 06:08N 46°16' E 030°44'642.0
2018-Feb-16 06:00N 46°10' E 030°46'0 0.1
2018-Feb-16 05:29N 46°10' E 030°46'  
2018-Feb-12 09:59N 46°19' E 030°40'2 0.3
2018-Feb-12 03:53N 46°21' E 030°39'0 0.0
2018-Feb-12 02:50N 46°21' E 030°39'0 0.0
2018-Feb-12 01:53N 46°21' E 030°39'0 0.0
2018-Feb-12 00:59N 46°21' E 030°39'0 0.0
2018-Feb-11 09:59N 46°21' E 030°39'0 0.0
2018-Feb-11 05:59N 46°21' E 030°39'0 0.0
2018-Feb-11 00:56N 46°21' E 030°39'0 0.0
2018-Feb-10 17:56N 46°21' E 030°39'1 1.5
2018-Feb-10 16:58N 46°19' E 030°40'9 8.7
2018-Feb-10 15:59N 46°12' E 030°46'  
2018-Feb-08 06:00N 46°21' E 030°39'0 0.0
2018-Feb-08 00:59N 46°21' E 030°39'0 0.0
2018-Feb-08 00:30N 46°21' E 030°39'0 0.0
2018-Feb-07 23:59N 46°21' E 030°39'0 0.0
2018-Feb-07 23:30N 46°21' E 030°39'0 0.0
2018-Feb-07 22:59N 46°21' E 030°39'0 0.0
2018-Feb-07 21:59N 46°21' E 030°39'0 0.0
2018-Feb-07 21:31N 46°21' E 030°39'  

Dump ship's entire track history